Terminal Aerodrome Forecast
Issued by NWS

Home | Current Version | Previous Version | Text Only | Print | Product List | Glossary On
Versions: 1 2 3 4 5 6 7 8 9 10 11 12 13
227
FTUS46 KPDT 011958 AAA
TAFYKM
TAF AMD
KYKM 011958Z 0120/0218 05010KT P6SM FEW080
     FM020200 VRB05KT P6SM SKC
     FM020600 26009KT P6SM SKC=

USA.gov is the U.S. government's official web portal to all federal, state and local government web resources and services.